sensor_id;sensor_type;location;lat;lon;timestamp;P1;durP1;ratioP1;P2;durP2;ratioP2
75645;SDS011;64237;52.438;13.240;2022-12-18T11:05:40;20.38;;;6.28;;
75645;SDS011;64237;52.438;13.240;2022-12-18T11:08:11;24.20;;;5.70;;
75645;SDS011;64237;52.438;13.240;2022-12-18T11:13:17;21.70;;;7.83;;
75645;SDS011;64237;52.438;13.240;2022-12-18T11:15:45;23.10;;;7.38;;
75645;SDS011;64237;52.438;13.240;2022-12-18T11:18:19;27.10;;;7.72;;
75645;SDS011;64237;52.438;13.240;2022-12-18T11:21:09;18.85;;;6.70;;
75645;SDS011;64237;52.438;13.240;2022-12-18T11:23:36;24.73;;;6.95;;
75645;SDS011;64237;52.438;13.240;2022-12-18T11:26:11;24.17;;;6.78;;
75645;SDS011;64237;52.438;13.240;2022-12-18T11:28:37;23.88;;;8.00;;
75645;SDS011;64237;52.438;13.240;2022-12-18T11:36:43;24.58;;;6.82;;
75645;SDS011;64237;52.438;13.240;2022-12-18T11:41:54;22.52;;;7.15;;
75645;SDS011;64237;52.438;13.240;2022-12-18T11:49:50;20.95;;;7.00;;
75645;SDS011;64237;52.438;13.240;2022-12-18T11:52:22;20.90;;;6.53;;
75645;SDS011;64237;52.438;13.240;2022-12-18T11:54:52;21.77;;;7.20;;
75645;SDS011;64237;52.438;13.240;2022-12-18T12:00:22;23.40;;;6.57;;
75645;SDS011;64237;52.438;13.240;2022-12-18T12:09:04;18.83;;;6.07;;
75645;SDS011;64237;52.438;13.240;2022-12-18T12:17:31;20.67;;;7.30;;
75645;SDS011;64237;52.438;13.240;2022-12-18T12:29:21;18.52;;;6.53;;
75645;SDS011;64237;52.438;13.240;2022-12-18T12:34:22;17.13;;;6.25;;
75645;SDS011;64237;52.438;13.240;2022-12-18T12:46:58;22.95;;;7.53;;
75645;SDS011;64237;52.438;13.240;2022-12-18T12:49:30;23.90;;;6.55;;
75645;SDS011;64237;52.438;13.240;2022-12-18T12:51:59;20.88;;;6.82;;
75645;SDS011;64237;52.438;13.240;2022-12-18T12:54:31;22.55;;;7.25;;
75645;SDS011;64237;52.438;13.240;2022-12-18T12:59:34;21.80;;;6.55;;
75645;SDS011;64237;52.438;13.240;2022-12-18T13:02:17;24.58;;;8.73;;
75645;SDS011;64237;52.438;13.240;2022-12-18T13:15:21;23.20;;;6.65;;
75645;SDS011;64237;52.438;13.240;2022-12-18T13:23:26;18.88;;;5.85;;
75645;SDS011;64237;52.438;13.240;2022-12-18T13:25:54;20.30;;;7.55;;
75645;SDS011;64237;52.438;13.240;2022-12-18T13:34:24;27.70;;;8.07;;
75645;SDS011;64237;52.438;13.240;2022-12-18T13:36:52;22.90;;;7.55;;
75645;SDS011;64237;52.438;13.240;2022-12-18T13:41:48;24.70;;;7.97;;
75645;SDS011;64237;52.438;13.240;2022-12-18T13:46:51;21.98;;;7.13;;
75645;SDS011;64237;52.438;13.240;2022-12-18T13:49:25;17.80;;;6.05;;
75645;SDS011;64237;52.438;13.240;2022-12-18T13:51:55;21.60;;;7.25;;
75645;SDS011;64237;52.438;13.240;2022-12-18T13:54:37;21.92;;;6.63;;
75645;SDS011;64237;52.438;13.240;2022-12-18T13:57:22;15.07;;;5.50;;
75645;SDS011;64237;52.438;13.240;2022-12-18T13:59:53;20.45;;;7.07;;
75645;SDS011;64237;52.438;13.240;2022-12-18T14:02:21;20.38;;;6.05;;
75645;SDS011;64237;52.438;13.240;2022-12-18T14:04:48;20.98;;;6.68;;
75645;SDS011;64237;52.438;13.240;2022-12-18T14:09:57;13.65;;;5.70;;
75645;SDS011;64237;52.438;13.240;2022-12-18T14:12:26;26.08;;;9.10;;
75645;SDS011;64237;52.438;13.240;2022-12-18T14:17:54;18.30;;;6.50;;
75645;SDS011;64237;52.438;13.240;2022-12-18T14:20:22;19.52;;;7.50;;
75645;SDS011;64237;52.438;13.240;2022-12-18T14:22:49;20.67;;;8.07;;
75645;SDS011;64237;52.438;13.240;2022-12-18T14:25:16;20.73;;;7.43;;
75645;SDS011;64237;52.438;13.240;2022-12-18T14:27:46;27.42;;;8.43;;
75645;SDS011;64237;52.438;13.240;2022-12-18T14:33:03;23.17;;;7.47;;
75645;SDS011;64237;52.438;13.240;2022-12-18T14:35:40;28.98;;;8.60;;
75645;SDS011;64237;52.438;13.240;2022-12-18T14:40:59;31.75;;;10.50;;
75645;SDS011;64237;52.438;13.240;2022-12-18T14:43:26;30.90;;;10.00;;
75645;SDS011;64237;52.438;13.240;2022-12-18T14:45:53;33.85;;;10.60;;
75645;SDS011;64237;52.438;13.240;2022-12-18T14:48:20;30.55;;;9.93;;
75645;SDS011;64237;52.438;13.240;2022-12-18T14:50:54;41.90;;;11.73;;
75645;SDS011;64237;52.438;13.240;2022-12-18T14:53:35;31.52;;;9.40;;
75645;SDS011;64237;52.438;13.240;2022-12-18T14:56:33;32.85;;;10.05;;
75645;SDS011;64237;52.438;13.240;2022-12-18T14:59:12;35.00;;;11.13;;
75645;SDS011;64237;52.438;13.240;2022-12-18T15:01:44;37.20;;;10.95;;
75645;SDS011;64237;52.438;13.240;2022-12-18T15:04:25;38.42;;;13.18;;
75645;SDS011;64237;52.438;13.240;2022-12-18T15:07:18;32.92;;;11.00;;
75645;SDS011;64237;52.438;13.240;2022-12-18T19:02:20;23.92;;;8.18;;
75645;SDS011;64237;52.438;13.240;2022-12-18T19:04:45;25.50;;;8.10;;
75645;SDS011;64237;52.438;13.240;2022-12-18T19:07:11;27.75;;;8.32;;
75645;SDS011;64237;52.438;13.240;2022-12-18T19:09:36;23.80;;;8.20;;
75645;SDS011;64237;52.438;13.240;2022-12-18T19:12:02;23.80;;;7.68;;
75645;SDS011;64237;52.438;13.240;2022-12-18T19:14:46;25.48;;;7.30;;
75645;SDS011;64237;52.438;13.240;2022-12-18T19:17:12;28.50;;;9.55;;
75645;SDS011;64237;52.438;13.240;2022-12-18T19:19:38;26.05;;;9.00;;
75645;SDS011;64237;52.438;13.240;2022-12-18T19:22:03;27.08;;;8.70;;
75645;SDS011;64237;52.438;13.240;2022-12-18T19:24:29;31.85;;;9.10;;
75645;SDS011;64237;52.438;13.240;2022-12-18T19:26:54;27.20;;;9.45;;
75645;SDS011;64237;52.438;13.240;2022-12-18T19:29:19;28.60;;;8.35;;
75645;SDS011;64237;52.438;13.240;2022-12-18T19:31:45;27.00;;;8.57;;
75645;SDS011;64237;52.438;13.240;2022-12-18T19:34:10;28.42;;;7.93;;
75645;SDS011;64237;52.438;13.240;2022-12-18T19:36:36;23.85;;;10.02;;
75645;SDS011;64237;52.438;13.240;2022-12-18T19:39:07;26.63;;;8.23;;
75645;SDS011;64237;52.438;13.240;2022-12-18T19:41:35;27.65;;;8.82;;
75645;SDS011;64237;52.438;13.240;2022-12-18T19:44:01;28.55;;;8.93;;
75645;SDS011;64237;52.438;13.240;2022-12-18T19:46:26;27.70;;;8.25;;
75645;SDS011;64237;52.438;13.240;2022-12-18T19:48:52;26.40;;;8.18;;
75645;SDS011;64237;52.438;13.240;2022-12-18T19:51:18;30.33;;;9.43;;
75645;SDS011;64237;52.438;13.240;2022-12-18T19:53:46;21.75;;;8.05;;
75645;SDS011;64237;52.438;13.240;2022-12-18T19:56:13;25.08;;;9.20;;
75645;SDS011;64237;52.438;13.240;2022-12-18T19:58:40;29.52;;;8.95;;
75645;SDS011;64237;52.438;13.240;2022-12-18T20:01:06;24.60;;;8.45;;
75645;SDS011;64237;52.438;13.240;2022-12-18T20:03:31;25.10;;;8.43;;
75645;SDS011;64237;52.438;13.240;2022-12-18T20:06:07;22.77;;;7.07;;
75645;SDS011;64237;52.438;13.240;2022-12-18T20:08:35;24.08;;;8.45;;
75645;SDS011;64237;52.438;13.240;2022-12-18T20:11:00;24.95;;;9.40;;
75645;SDS011;64237;52.438;13.240;2022-12-18T20:13:26;31.05;;;9.68;;
75645;SDS011;64237;52.438;13.240;2022-12-18T20:15:52;26.08;;;8.07;;
75645;SDS011;64237;52.438;13.240;2022-12-18T20:18:17;29.67;;;8.95;;
75645;SDS011;64237;52.438;13.240;2022-12-18T20:20:42;23.90;;;8.30;;
75645;SDS011;64237;52.438;13.240;2022-12-18T20:23:08;29.10;;;8.40;;
75645;SDS011;64237;52.438;13.240;2022-12-18T20:25:33;21.73;;;7.57;;
75645;SDS011;64237;52.438;13.240;2022-12-18T20:27:59;30.83;;;9.95;;
75645;SDS011;64237;52.438;13.240;2022-12-18T20:30:24;25.08;;;8.55;;
75645;SDS011;64237;52.438;13.240;2022-12-18T20:32:49;26.33;;;8.57;;
75645;SDS011;64237;52.438;13.240;2022-12-18T20:35:15;26.13;;;7.97;;
75645;SDS011;64237;52.438;13.240;2022-12-18T20:37:40;26.02;;;8.85;;
75645;SDS011;64237;52.438;13.240;2022-12-18T20:40:05;35.15;;;9.95;;
75645;SDS011;64237;52.438;13.240;2022-12-18T20:42:31;24.20;;;8.27;;
75645;SDS011;64237;52.438;13.240;2022-12-18T20:44:57;25.05;;;9.05;;
75645;SDS011;64237;52.438;13.240;2022-12-18T20:47:22;27.00;;;8.40;;
75645;SDS011;64237;52.438;13.240;2022-12-18T20:49:47;25.27;;;8.10;;
75645;SDS011;64237;52.438;13.240;2022-12-18T20:52:13;26.48;;;8.35;;
75645;SDS011;64237;52.438;13.240;2022-12-18T20:54:38;26.90;;;9.80;;
75645;SDS011;64237;52.438;13.240;2022-12-18T20:57:03;25.13;;;8.23;;
75645;SDS011;64237;52.438;13.240;2022-12-18T20:59:29;26.10;;;8.80;;
75645;SDS011;64237;52.438;13.240;2022-12-18T21:01:54;26.92;;;8.25;;
75645;SDS011;64237;52.438;13.240;2022-12-18T21:04:20;27.88;;;8.60;;
75645;SDS011;64237;52.438;13.240;2022-12-18T21:06:46;28.45;;;8.20;;
75645;SDS011;64237;52.438;13.240;2022-12-18T21:09:12;26.83;;;8.90;;
75645;SDS011;64237;52.438;13.240;2022-12-18T21:11:38;25.90;;;9.25;;
75645;SDS011;64237;52.438;13.240;2022-12-18T21:14:23;27.55;;;9.43;;
75645;SDS011;64237;52.438;13.240;2022-12-18T21:16:50;29.25;;;8.75;;
75645;SDS011;64237;52.438;13.240;2022-12-18T21:19:17;28.75;;;9.32;;
75645;SDS011;64237;52.438;13.240;2022-12-18T21:21:45;29.38;;;8.38;;
75645;SDS011;64237;52.438;13.240;2022-12-18T21:24:11;33.75;;;9.40;;
75645;SDS011;64237;52.438;13.240;2022-12-18T21:26:37;25.60;;;8.25;;
75645;SDS011;64237;52.438;13.240;2022-12-18T21:29:05;24.63;;;8.15;;
75645;SDS011;64237;52.438;13.240;2022-12-18T21:31:33;29.58;;;9.02;;
75645;SDS011;64237;52.438;13.240;2022-12-18T21:33:59;28.08;;;10.05;;
75645;SDS011;64237;52.438;13.240;2022-12-18T21:36:25;28.95;;;8.65;;
75645;SDS011;64237;52.438;13.240;2022-12-18T21:38:51;24.85;;;7.80;;
75645;SDS011;64237;52.438;13.240;2022-12-18T21:41:21;34.50;;;9.82;;
75645;SDS011;64237;52.438;13.240;2022-12-18T21:44:05;26.83;;;8.32;;
75645;SDS011;64237;52.438;13.240;2022-12-18T21:46:32;29.40;;;9.45;;
75645;SDS011;64237;52.438;13.240;2022-12-18T21:48:59;32.90;;;9.32;;
75645;SDS011;64237;52.438;13.240;2022-12-18T21:51:25;26.88;;;9.77;;
75645;SDS011;64237;52.438;13.240;2022-12-18T21:53:50;31.27;;;9.82;;
75645;SDS011;64237;52.438;13.240;2022-12-18T21:56:16;30.08;;;8.68;;
75645;SDS011;64237;52.438;13.240;2022-12-18T21:58:41;24.48;;;8.27;;
75645;SDS011;64237;52.438;13.240;2022-12-18T22:01:06;28.23;;;8.35;;
75645;SDS011;64237;52.438;13.240;2022-12-18T22:03:32;29.80;;;9.23;;
75645;SDS011;64237;52.438;13.240;2022-12-18T22:05:58;27.85;;;9.82;;
75645;SDS011;64237;52.438;13.240;2022-12-18T22:08:24;26.08;;;8.38;;
75645;SDS011;64237;52.438;13.240;2022-12-18T22:10:50;28.77;;;8.75;;
75645;SDS011;64237;52.438;13.240;2022-12-18T22:13:16;26.98;;;8.18;;
75645;SDS011;64237;52.438;13.240;2022-12-18T22:15:41;31.67;;;8.60;;
75645;SDS011;64237;52.438;13.240;2022-12-18T22:18:07;27.42;;;8.63;;
75645;SDS011;64237;52.438;13.240;2022-12-18T22:20:32;24.38;;;7.13;;
75645;SDS011;64237;52.438;13.240;2022-12-18T22:22:58;25.20;;;8.13;;
75645;SDS011;64237;52.438;13.240;2022-12-18T22:25:23;24.60;;;8.25;;
75645;SDS011;64237;52.438;13.240;2022-12-18T22:27:49;25.48;;;8.20;;
75645;SDS011;64237;52.438;13.240;2022-12-18T22:30:33;27.55;;;8.70;;
75645;SDS011;64237;52.438;13.240;2022-12-18T22:32:58;25.77;;;8.25;;
75645;SDS011;64237;52.438;13.240;2022-12-18T22:35:24;30.30;;;8.88;;
75645;SDS011;64237;52.438;13.240;2022-12-18T22:37:49;26.90;;;8.02;;
75645;SDS011;64237;52.438;13.240;2022-12-18T22:40:18;29.45;;;9.00;;
75645;SDS011;64237;52.438;13.240;2022-12-18T22:42:46;27.58;;;8.75;;
75645;SDS011;64237;52.438;13.240;2022-12-18T22:45:12;27.83;;;8.23;;
75645;SDS011;64237;52.438;13.240;2022-12-18T22:47:38;22.10;;;7.25;;
75645;SDS011;64237;52.438;13.240;2022-12-18T22:50:03;28.50;;;7.55;;
75645;SDS011;64237;52.438;13.240;2022-12-18T22:52:29;30.35;;;8.65;;
75645;SDS011;64237;52.438;13.240;2022-12-18T22:54:55;32.55;;;8.07;;
75645;SDS011;64237;52.438;13.240;2022-12-18T22:57:21;27.25;;;8.23;;
75645;SDS011;64237;52.438;13.240;2022-12-18T22:59:47;26.30;;;9.40;;
75645;SDS011;64237;52.438;13.240;2022-12-18T23:02:13;25.58;;;8.57;;
75645;SDS011;64237;52.438;13.240;2022-12-18T23:04:38;25.15;;;7.55;;
75645;SDS011;64237;52.438;13.240;2022-12-18T23:07:04;28.20;;;7.93;;
75645;SDS011;64237;52.438;13.240;2022-12-18T23:09:29;25.90;;;7.57;;
75645;SDS011;64237;52.438;13.240;2022-12-18T23:11:55;26.25;;;8.48;;
75645;SDS011;64237;52.438;13.240;2022-12-18T23:14:20;33.20;;;8.55;;
75645;SDS011;64237;52.438;13.240;2022-12-18T23:16:46;23.83;;;7.97;;
75645;SDS011;64237;52.438;13.240;2022-12-18T23:19:11;27.67;;;8.10;;
75645;SDS011;64237;52.438;13.240;2022-12-18T23:21:38;26.92;;;8.48;;
75645;SDS011;64237;52.438;13.240;2022-12-18T23:24:03;24.67;;;7.55;;
75645;SDS011;64237;52.438;13.240;2022-12-18T23:26:29;21.15;;;8.20;;
75645;SDS011;64237;52.438;13.240;2022-12-18T23:28:55;25.42;;;7.57;;
75645;SDS011;64237;52.438;13.240;2022-12-18T23:31:27;22.48;;;7.22;;
75645;SDS011;64237;52.438;13.240;2022-12-18T23:33:55;24.67;;;8.50;;
75645;SDS011;64237;52.438;13.240;2022-12-18T23:36:22;26.23;;;7.28;;
75645;SDS011;64237;52.438;13.240;2022-12-18T23:38:49;27.65;;;7.28;;
75645;SDS011;64237;52.438;13.240;2022-12-18T23:41:17;28.55;;;8.10;;
75645;SDS011;64237;52.438;13.240;2022-12-18T23:43:44;28.00;;;7.95;;
75645;SDS011;64237;52.438;13.240;2022-12-18T23:46:17;22.08;;;6.72;;
75645;SDS011;64237;52.438;13.240;2022-12-18T23:48:51;25.65;;;7.60;;
75645;SDS011;64237;52.438;13.240;2022-12-18T23:51:17;22.23;;;7.15;;
75645;SDS011;64237;52.438;13.240;2022-12-18T23:53:44;23.92;;;7.25;;
75645;SDS011;64237;52.438;13.240;2022-12-18T23:56:10;18.98;;;6.57;;
75645;SDS011;64237;52.438;13.240;2022-12-18T23:58:37;22.33;;;7.32;;
